Skip Navigation LinksHome page > Weather > Current weather Skip Navigation Links

Current Weather

Fukuoka, Japan

For information only: do not use for flight planning or navigation.
Latest weather
Observation time Thursday, January 27, 2022 2:00 PM JST
Local time Thursday, January 27, 2022 2:25 PM JST
Flight conditions Visual Meteorological Conditions
Winds
Wind direction North-Northwest (330°)
Winds variable from 280° to 10°
Wind speed 7 mph
Visibility 6.2 mi.
Sky condition
Ceiling unlimited
Cloud layer scattered clouds 0 ft.
Cloud layer few clouds 4,000 ft.
Temperature 54°F
Dewpoint 34°F
Altimeter 30.09 in.Hg
Derived measurements
Relative humidity 47%
Density altitude -412 ft.
Remarks
No significant changes expected in the next two hours.
METAR RJFF 270500Z 33006KT 280V010 9999 FEW040 SCT/// 12/01 Q1019 NOSIG RMK 1CU040 A3010

Settings

Location code

InnerDrive.Weather 4.0.6770.0 Release CLR 4.0.30319.42000
Copyright ©2018 Inner Drive Technology. All rights reserved. Portions Copyright ©1986-2018 David Braverman.

Find weather

Site navigation


Skip Navigation Links

Place info

Page info

PayPal - The safer, easier way to pay online!

Return home.

Copyright ©2022 Inner Drive Technology. Purveyors of fine, hand-crafted computer software. Page printed 2022-01-27T05:25:50 UTC.